Peotone Weather
Station Historical Data
 
Daily Summary for February 16, 2019 Units:  English    Metric   Both
« Previous Day
Next Day »
Daily Weekly Monthly Yearly Custom
  Current: High: Low: Average:
Temperature: 26.5 °F 30.6 °F 15.8 °F 21.6 °F
Dew Point: 17.7 °F 21.8 °F 8.3 °F 13.4 °F
Humidity: 69% 72% 65% 70%
Wind Speed: 3.4mph 13.8mph 0.0mph 4mph
Wind Gust: 4.6mph 17.2mph - -
WindNE - - West
Pressure: 30.10 in 30.19 in 30.10 in -
Precipitation: 0.00 in      
Historical Graphs
 
 
Tabular Data for February 16, 2019
Time Temperature Dew Point Pressure Wind Wind Speed Wind Gust Humidity Rainfall Rate (Hourly) solar Conditions
00:00 15.8 °F 8.4 °F 30.14 in NW 5.8 mph 6.9 mph 72% 0.00 in 0.00 W/m2
00:04 15.9 °F 8.5 °F 30.14 in West 4.6 mph 8.1 mph 72% 0.00 in 0.00 W/m2
00:05 15.8 °F 8.4 °F 30.14 in WNW 6.9 mph 8.1 mph 72% 0.00 in 0.00 W/m2
00:09 15.9 °F 8.5 °F 30.14 in WNW 5.8 mph 8.1 mph 72% 0.00 in 0.00 W/m2
00:10 15.9 °F 8.5 °F 30.14 in WNW 5.8 mph 8.1 mph 72% 0.00 in 0.00 W/m2
00:14 16.1 °F 8.7 °F 30.15 in WNW 4.6 mph 8.1 mph 72% 0.00 in 0.00 W/m2
00:15 16.0 °F 8.6 °F 30.15 in WNW 5.8 mph 8.1 mph 72% 0.00 in 0.00 W/m2
00:19 16.1 °F 8.7 °F 30.15 in WNW 6.9 mph 6.9 mph 72% 0.00 in 0.00 W/m2
00:20 16.1 °F 8.7 °F 30.15 in NW 6.9 mph 6.9 mph 72% 0.00 in 0.00 W/m2
00:24 16.2 °F 8.8 °F 30.15 in WNW 5.8 mph 9.2 mph 72% 0.00 in 0.00 W/m2
00:25 16.3 °F 8.9 °F 30.15 in WNW 5.8 mph 9.2 mph 72% 0.00 in 0.00 W/m2
00:29 16.2 °F 8.5 °F 30.15 in NW 9.2 mph 9.2 mph 71% 0.00 in 0.00 W/m2
00:30 16.2 °F 8.5 °F 30.15 in WNW 6.9 mph 9.2 mph 71% 0.00 in 0.00 W/m2
00:34 16.3 °F 8.6 °F 30.15 in NW 6.9 mph 8.1 mph 71% 0.00 in 0.00 W/m2
00:35 16.4 °F 8.7 °F 30.15 in NW 6.9 mph 9.2 mph 71% 0.00 in 0.00 W/m2
00:39 16.3 °F 8.6 °F 30.15 in NW 5.8 mph 11.5 mph 71% 0.00 in 0.00 W/m2
00:40 16.3 °F 8.6 °F 30.15 in WNW 4.6 mph 11.5 mph 71% 0.00 in 0.00 W/m2
00:44 16.4 °F 8.3 °F 30.15 in WNW 4.6 mph 9.2 mph 70% 0.00 in 0.00 W/m2
00:45 16.5 °F 8.4 °F 30.15 in West 5.8 mph 9.2 mph 70% 0.00 in 0.00 W/m2
00:49 16.5 °F 8.4 °F 30.15 in WNW 6.9 mph 10.3 mph 70% 0.00 in 0.00 W/m2
00:50 16.4 °F 8.3 °F 30.16 in WNW 5.8 mph 10.4 mph 70% 0.00 in 0.00 W/m2
00:54 16.5 °F 8.4 °F 30.16 in WNW 9.2 mph 10.3 mph 70% 0.00 in 0.00 W/m2
00:55 16.5 °F 8.4 °F 30.16 in NW 6.9 mph 10.4 mph 70% 0.00 in 0.00 W/m2
00:59 16.5 °F 8.4 °F 30.16 in WNW 4.6 mph 10.3 mph 70% 0.00 in 0.00 W/m2
01:00 16.5 °F 8.4 °F 30.16 in WNW 4.6 mph 10.4 mph 70% 0.00 in 0.00 W/m2
01:04 16.7 °F 8.9 °F 30.16 in NW 6.9 mph 10.3 mph 71% 0.00 in 0.00 W/m2
01:05 16.7 °F 8.9 °F 30.16 in NW 6.9 mph 10.4 mph 71% 0.00 in 0.00 W/m2
01:09 16.8 °F 9.0 °F 30.15 in NNW 6.9 mph 9.2 mph 71% 0.00 in 0.00 W/m2
01:10 16.8 °F 8.7 °F 30.15 in NW 9.2 mph 9.2 mph 70% 0.00 in 0.00 W/m2
01:14 16.8 °F 8.7 °F 30.15 in WNW 4.6 mph 9.2 mph 70% 0.00 in 0.00 W/m2
01:15 16.8 °F 9.0 °F 30.15 in NW 4.6 mph 9.2 mph 71% 0.00 in 0.00 W/m2
01:19 16.8 °F 8.7 °F 30.16 in WNW 6.9 mph 9.2 mph 70% 0.00 in 0.00 W/m2
01:20 16.8 °F 8.7 °F 30.16 in WNW 8.1 mph 9.2 mph 70% 0.00 in 0.00 W/m2
01:24 16.9 °F 9.1 °F 30.15 in WNW 3.4 mph 9.2 mph 71% 0.00 in 0.00 W/m2
01:25 16.9 °F 9.1 °F 30.15 in NW 5.8 mph 11.5 mph 71% 0.00 in 0.00 W/m2
01:29 16.9 °F 8.8 °F 30.15 in WNW 8.1 mph 9.2 mph 70% 0.00 in 0.00 W/m2
01:30 16.9 °F 8.8 °F 30.15 in NW 9.2 mph 10.4 mph 70% 0.00 in 0.00 W/m2
01:34 16.9 °F 8.8 °F 30.15 in NW 4.6 mph 10.3 mph 70% 0.00 in 0.00 W/m2
01:35 16.9 °F 8.8 °F 30.15 in NW 9.2 mph 10.4 mph 70% 0.00 in 0.00 W/m2
01:39 17.0 °F 8.9 °F 30.15 in NW 5.8 mph 10.3 mph 70% 0.00 in 0.00 W/m2
01:40 17.0 °F 9.2 °F 30.15 in NW 6.9 mph 10.4 mph 71% 0.00 in 0.00 W/m2
01:44 16.9 °F 8.8 °F 30.15 in NW 6.9 mph 10.3 mph 70% 0.00 in 0.00 W/m2
01:45 16.9 °F 8.8 °F 30.15 in NW 4.6 mph 10.4 mph 70% 0.00 in 0.00 W/m2
01:49 17.0 °F 9.2 °F 30.15 in WNW 6.9 mph 9.2 mph 71% 0.00 in 0.00 W/m2
01:50 17.0 °F 9.2 °F 30.15 in NW 6.9 mph 9.2 mph 71% 0.00 in 0.00 W/m2
01:54 17.0 °F 9.2 °F 30.15 in WNW 8.1 mph 8.1 mph 71% 0.00 in 0.00 W/m2
01:55 17.0 °F 9.2 °F 30.15 in NW 6.9 mph 9.2 mph 71% 0.00 in 0.00 W/m2
01:59 17.1 °F 9.3 °F 30.15 in WNW 9.2 mph 9.2 mph 71% 0.00 in 0.00 W/m2
02:00 17.0 °F 9.2 °F 30.15 in NW 8.1 mph 9.2 mph 71% 0.00 in 0.00 W/m2
02:04 17.1 °F 9.3 °F 30.16 in NW 5.8 mph 9.2 mph 71% 0.00 in 0.00 W/m2
02:05 17.1 °F 9.3 °F 30.16 in NW 6.9 mph 9.2 mph 71% 0.00 in 0.00 W/m2
02:09 17.1 °F 9.3 °F 30.15 in NW 6.9 mph 11.5 mph 71% 0.00 in 0.00 W/m2
02:10 17.1 °F 9.3 °F 30.15 in NW 6.9 mph 11.5 mph 71% 0.00 in 0.00 W/m2
02:14 17.2 °F 9.4 °F 30.15 in WNW 10.3 mph 11.5 mph 71% 0.00 in 0.00 W/m2
02:15 17.2 °F 9.4 °F 30.15 in NW 9.2 mph 11.5 mph 71% 0.00 in 0.00 W/m2
02:19 17.1 °F 9.3 °F 30.15 in WNW 8.1 mph 10.3 mph 71% 0.00 in 0.00 W/m2
02:20 17.1 °F 9.3 °F 30.15 in NW 6.9 mph 10.4 mph 71% 0.00 in 0.00 W/m2
02:24 17.2 °F 9.4 °F 30.15 in NW 10.3 mph 10.3 mph 71% 0.00 in 0.00 W/m2
02:25 17.2 °F 9.4 °F 30.15 in NW 6.9 mph 10.4 mph 71% 0.00 in 0.00 W/m2
02:29 17.3 °F 9.5 °F 30.15 in NW 4.6 mph 9.2 mph 71% 0.00 in 0.00 W/m2
02:30 17.3 °F 9.5 °F 30.15 in WNW 8.1 mph 10.4 mph 71% 0.00 in 0.00 W/m2
02:34 17.3 °F 9.5 °F 30.15 in WNW 8.1 mph 10.3 mph 71% 0.00 in 0.00 W/m2
02:35 17.4 °F 9.6 °F 30.15 in NW 8.1 mph 10.4 mph 71% 0.00 in 0.00 W/m2
02:39 17.4 °F 9.6 °F 30.15 in NW 6.9 mph 8.1 mph 71% 0.00 in 0.00 W/m2
02:40 17.4 °F 9.6 °F 30.15 in NNW 8.1 mph 9.2 mph 71% 0.00 in 0.00 W/m2
02:44 17.4 °F 9.6 °F 30.15 in NW 4.6 mph 9.2 mph 71% 0.00 in 0.00 W/m2
02:45 17.4 °F 9.6 °F 30.15 in NW 5.8 mph 9.2 mph 71% 0.00 in 0.00 W/m2
02:49 17.4 °F 9.6 °F 30.15 in NW 9.2 mph 10.3 mph 71% 0.00 in 0.00 W/m2
02:50 17.4 °F 9.6 °F 30.15 in WNW 6.9 mph 10.4 mph 71% 0.00 in 0.00 W/m2
02:54 17.5 °F 9.7 °F 30.15 in NW 10.3 mph 10.3 mph 71% 0.00 in 0.00 W/m2
02:55 17.4 °F 9.6 °F 30.15 in NW 5.8 mph 10.4 mph 71% 0.00 in 0.00 W/m2
02:59 17.5 °F 9.7 °F 30.15 in NW 4.6 mph 6.9 mph 71% 0.00 in 0.00 W/m2
03:04 17.5 °F 9.7 °F 30.15 in NW 3.4 mph 10.3 mph 71% 0.00 in 0.00 W/m2
03:05 17.5 °F 9.7 °F 30.15 in NW 4.6 mph 10.4 mph 71% 0.00 in 0.00 W/m2
03:09 17.5 °F 9.7 °F 30.15 in NW 3.4 mph 6.9 mph 71% 0.00 in 0.00 W/m2
03:10 17.5 °F 9.7 °F 30.15 in NW 5.8 mph 10.4 mph 71% 0.00 in 0.00 W/m2
03:14 17.6 °F 9.8 °F 30.15 in NW 4.6 mph 9.2 mph 71% 0.00 in 0.00 W/m2
03:15 17.6 °F 10.1 °F 30.15 in NW 4.6 mph 9.2 mph 72% 0.00 in 0.00 W/m2
03:19 17.7 °F 10.2 °F 30.15 in NNW 4.6 mph 8.1 mph 72% 0.00 in 0.00 W/m2
03:20 17.6 °F 10.1 °F 30.15 in NNW 9.2 mph 9.2 mph 72% 0.00 in 0.00 W/m2
03:24 17.6 °F 10.1 °F 30.15 in NW 9.2 mph 9.2 mph 72% 0.00 in 0.00 W/m2
03:25 17.7 °F 10.2 °F 30.15 in NW 5.8 mph 9.2 mph 72% 0.00 in 0.00 W/m2
03:29 17.7 °F 9.9 °F 30.14 in NW 8.1 mph 9.2 mph 71% 0.00 in 0.00 W/m2
03:30 17.6 °F 10.1 °F 30.14 in NNW 8.1 mph 9.2 mph 72% 0.00 in 0.00 W/m2
03:34 17.7 °F 10.2 °F 30.14 in NW 4.6 mph 9.2 mph 72% 0.00 in 0.00 W/m2
03:35 17.7 °F 10.2 °F 30.15 in NW 5.8 mph 9.2 mph 72% 0.00 in 0.00 W/m2
03:39 17.8 °F 10.3 °F 30.15 in NW 4.6 mph 9.2 mph 72% 0.00 in 0.00 W/m2
03:40 17.7 °F 10.2 °F 30.15 in NW 2.3 mph 9.2 mph 72% 0.00 in 0.00 W/m2
03:44 17.8 °F 10.3 °F 30.15 in NNW 3.4 mph 8.1 mph 72% 0.00 in 0.00 W/m2
03:45 17.7 °F 10.2 °F 30.15 in NNW 5.8 mph 8.1 mph 72% 0.00 in 0.00 W/m2
03:49 17.8 °F 10.3 °F 30.15 in NW 6.9 mph 8.1 mph 72% 0.00 in 0.00 W/m2
03:50 17.8 °F 10.3 °F 30.15 in NNW 3.5 mph 8.1 mph 72% 0.00 in 0.00 W/m2
03:54 17.8 °F 10.3 °F 30.15 in NNW 2.3 mph 6.9 mph 72% 0.00 in 0.00 W/m2
03:55 17.8 °F 10.3 °F 30.15 in NNW 2.3 mph 6.9 mph 72% 0.00 in 0.00 W/m2
03:59 17.9 °F 10.4 °F 30.15 in NNW 5.8 mph 8.1 mph 72% 0.00 in 0.00 W/m2
04:00 17.9 °F 10.4 °F 30.15 in NNW 6.9 mph 8.1 mph 72% 0.00 in 0.00 W/m2
04:04 17.9 °F 10.4 °F 30.15 in NNW 3.4 mph 9.2 mph 72% 0.00 in 0.00 W/m2
04:05 17.9 °F 10.4 °F 30.15 in NNW 1.1 mph 9.2 mph 72% 0.00 in 0.00 W/m2
04:09 17.9 °F 10.4 °F 30.15 in NNW 3.4 mph 5.8 mph 72% 0.00 in 0.00 W/m2
04:10 18.0 °F 10.5 °F 30.15 in NNW 3.5 mph 6.9 mph 72% 0.00 in 0.00 W/m2
04:14 18.0 °F 10.5 °F 30.15 in NW 6.9 mph 6.9 mph 72% 0.00 in 0.00 W/m2
04:15 18.1 °F 10.6 °F 30.15 in NNW 4.6 mph 6.9 mph 72% 0.00 in 0.00 W/m2
04:19 18.1 °F 10.6 °F 30.15 in NNW 3.4 mph 6.9 mph 72% 0.00 in 0.00 W/m2
04:20 18.1 °F 10.6 °F 30.15 in NW 3.5 mph 6.9 mph 72% 0.00 in 0.00 W/m2
04:24 18.1 °F 10.6 °F 30.15 in NW 5.8 mph 5.8 mph 72% 0.00 in 0.00 W/m2
04:25 18.2 °F 10.7 °F 30.15 in NNW 9.2 mph 9.2 mph 72% 0.00 in 0.00 W/m2
04:29 18.2 °F 10.7 °F 30.15 in NNW 3.4 mph 9.2 mph 72% 0.00 in 0.00 W/m2
04:30 18.2 °F 10.7 °F 30.15 in NNW 2.3 mph 9.2 mph 72% 0.00 in 0.00 W/m2
04:34 18.3 °F 10.8 °F 30.15 in NNW 3.4 mph 5.8 mph 72% 0.00 in 0.00 W/m2
04:35 18.2 °F 10.7 °F 30.15 in NNW 1.1 mph 5.8 mph 72% 0.00 in 0.00 W/m2
04:39 18.3 °F 10.8 °F 30.15 in NNW 1.1 mph 3.4 mph 72% 0.00 in 0.00 W/m2
04:40 18.3 °F 10.8 °F 30.15 in NNW 4.6 mph 4.6 mph 72% 0.00 in 0.00 W/m2
04:44 18.4 °F 10.9 °F 30.15 in NNW 4.6 mph 6.9 mph 72% 0.00 in 0.00 W/m2
04:45 18.3 °F 10.8 °F 30.15 in NNW 4.6 mph 6.9 mph 72% 0.00 in 0.00 W/m2
04:49 18.4 °F 10.9 °F 30.15 in NW 5.8 mph 5.8 mph 72% 0.00 in 0.00 W/m2
04:50 18.4 °F 10.9 °F 30.15 in NW 5.8 mph 5.8 mph 72% 0.00 in 0.00 W/m2
04:54 18.5 °F 11.0 °F 30.15 in North 4.6 mph 5.8 mph 72% 0.00 in 0.00 W/m2
04:55 18.5 °F 11.0 °F 30.15 in NNW 4.6 mph 5.8 mph 72% 0.00 in 0.00 W/m2
04:59 18.5 °F 11.0 °F 30.15 in NNW 5.8 mph 5.8 mph 72% 0.00 in 0.00 W/m2
05:00 18.5 °F 11.0 °F 30.15 in NNW 1.1 mph 5.8 mph 72% 0.00 in 0.00 W/m2
05:04 18.5 °F 11.0 °F 30.15 in NNW 1.1 mph 6.9 mph 72% 0.00 in 0.00 W/m2
05:05 18.5 °F 11.0 °F 30.15 in NNW 3.5 mph 6.9 mph 72% 0.00 in 0.00 W/m2
05:09 18.6 °F 11.1 °F 30.15 in NNW 2.3 mph 4.6 mph 72% 0.00 in 0.00 W/m2
05:10 18.6 °F 11.1 °F 30.15 in NNW 2.3 mph 4.6 mph 72% 0.00 in 0.00 W/m2
05:14 18.6 °F 11.1 °F 30.15 in NNW 1.1 mph 5.8 mph 72% 0.00 in 0.00 W/m2
05:15 18.6 °F 11.1 °F 30.15 in NNW 1.1 mph 5.8 mph 72% 0.00 in 0.00 W/m2
05:19 18.6 °F 11.1 °F 30.16 in NNW 2.3 mph 4.6 mph 72% 0.00 in 0.00 W/m2
05:20 18.7 °F 11.2 °F 30.16 in NNW 3.5 mph 4.6 mph 72% 0.00 in 0.00 W/m2
05:24 18.7 °F 11.2 °F 30.16 in NNW 1.1 mph 4.6 mph 72% 0.00 in 0.00 W/m2
05:25 18.7 °F 11.2 °F 30.16 in NNW 2.3 mph 4.6 mph 72% 0.00 in 0.00 W/m2
05:29 18.8 °F 11.3 °F 30.15 in NNW 3.4 mph 4.6 mph 72% 0.00 in 0.00 W/m2
05:30 18.7 °F 11.2 °F 30.16 in Calm   4.6 mph 72% 0.00 in 0.00 W/m2
05:34 18.8 °F 11.3 °F 30.15 in NNW 2.3 mph 4.6 mph 72% 0.00 in 0.00 W/m2
05:35 18.8 °F 11.0 °F 30.15 in NNW 2.3 mph 4.6 mph 71% 0.00 in 0.00 W/m2
05:39 18.9 °F 11.1 °F 30.15 in NNW 1.1 mph 4.6 mph 71% 0.00 in 0.00 W/m2
05:40 18.8 °F 11.0 °F 30.15 in NNW 1.1 mph 4.6 mph 71% 0.00 in 0.00 W/m2
05:44 18.9 °F 11.1 °F 30.15 in NNW 2.3 mph 4.6 mph 71% 0.00 in 0.00 W/m2
05:45 18.9 °F 11.1 °F 30.15 in NNW 2.3 mph 4.6 mph 71% 0.00 in 0.00 W/m2
05:49 18.9 °F 11.4 °F 30.15 in NNW 1.1 mph 4.6 mph 72% 0.00 in 0.00 W/m2
05:50 18.9 °F 11.1 °F 30.15 in NNW 1.1 mph 4.6 mph 71% 0.00 in 0.00 W/m2
05:54 18.9 °F 11.4 °F 30.15 in NNW 3.4 mph 4.6 mph 72% 0.00 in 0.00 W/m2
05:55 19.0 °F 11.5 °F 30.15 in NNW 3.5 mph 4.6 mph 72% 0.00 in 0.00 W/m2
05:59 19.0 °F 11.5 °F 30.15 in NNW 1.1 mph 4.6 mph 72% 0.00 in 0.00 W/m2
06:00 19.0 °F 11.2 °F 30.15 in NNW 2.3 mph 4.6 mph 71% 0.00 in 0.00 W/m2
06:04 19.0 °F 11.5 °F 30.16 in NNW 3.4 mph 4.6 mph 72% 0.00 in 0.00 W/m2
06:05 19.0 °F 11.2 °F 30.16 in Calm   4.6 mph 71% 0.00 in 0.00 W/m2
06:09 19.0 °F 11.2 °F 30.16 in NNW 1.1 mph 4.6 mph 71% 0.00 in 0.00 W/m2
06:10 19.0 °F 11.5 °F 30.16 in NNW 3.5 mph 4.6 mph 72% 0.00 in 0.00 W/m2
06:14 19.0 °F 11.2 °F 30.15 in NNW 1.1 mph 5.8 mph 71% 0.00 in 0.00 W/m2
06:15 19.0 °F 11.2 °F 30.15 in Calm   5.8 mph 71% 0.00 in 0.00 W/m2
06:19 19.1 °F 11.6 °F 30.15 in NNW 2.3 mph 4.6 mph 72% 0.00 in 0.00 W/m2
06:20 19.0 °F 11.5 °F 30.15 in NNW 4.6 mph 4.6 mph 72% 0.00 in 0.00 W/m2
06:24 19.1 °F 11.6 °F 30.15 in NNW 2.3 mph 4.6 mph 72% 0.00 in 0.00 W/m2
06:25 19.1 °F 11.6 °F 30.15 in Calm   4.6 mph 72% 0.00 in 0.00 W/m2
06:29 19.1 °F 11.6 °F 30.16 in NNW 2.3 mph 4.6 mph 72% 0.00 in 0.00 W/m2
06:30 19.2 °F 11.7 °F 30.16 in NNW 3.5 mph 4.6 mph 72% 0.00 in 0.00 W/m2
06:34 19.2 °F 11.7 °F 30.16 in NW 3.4 mph 6.9 mph 72% 0.00 in 0.00 W/m2
06:35 19.2 °F 11.3 °F 30.16 in NW 2.3 mph 6.9 mph 71% 0.00 in 0.00 W/m2
06:39 19.2 °F 11.7 °F 30.16 in NW 2.3 mph 5.8 mph 72% 0.00 in 0.00 W/m2
06:40 19.2 °F 11.3 °F 30.16 in NW 2.3 mph 5.8 mph 71% 0.00 in 0.00 W/m2
06:44 19.2 °F 11.3 °F 30.16 in NW 2.3 mph 6.9 mph 71% 0.00 in 0.00 W/m2
06:45 19.2 °F 11.3 °F 30.16 in NW 3.5 mph 6.9 mph 71% 0.00 in 0.00 W/m2
06:49 19.3 °F 11.4 °F 30.16 in WSW 1.1 mph 4.6 mph 71% 0.00 in 0.00 W/m2
06:50 19.3 °F 11.4 °F 30.16 in WSW 2.3 mph 4.6 mph 71% 0.00 in 0.00 W/m2
06:54 19.3 °F 11.4 °F 30.16 in WSW 2.3 mph 5.8 mph 71% 0.00 in 5.00 W/m2
06:55 19.3 °F 11.4 °F 30.16 in Calm   5.8 mph 71% 0.00 in 5.00 W/m2
06:59 19.3 °F 11.4 °F 30.16 in Calm   3.4 mph 71% 0.00 in 7.00 W/m2
07:00 19.4 °F 11.6 °F 30.16 in Calm   3.5 mph 71% 0.00 in 9.00 W/m2
07:04 19.4 °F 11.6 °F 30.16 in WSW 1.1 mph 3.4 mph 71% 0.00 in 9.00 W/m2
07:05 19.4 °F 11.6 °F 30.16 in WNW 3.5 mph 3.5 mph 71% 0.00 in 11.00 W/m2
07:09 19.4 °F 11.6 °F 30.15 in Calm   3.4 mph 71% 0.00 in 14.00 W/m2
07:10 19.4 °F 11.6 °F 30.15 in WNW 2.3 mph 3.5 mph 71% 0.00 in 14.00 W/m2
07:14 19.5 °F 11.6 °F 30.16 in NW 3.4 mph 4.6 mph 71% 0.00 in 18.00 W/m2
07:15 19.5 °F 12.0 °F 30.16 in NW 3.5 mph 4.6 mph 72% 0.00 in 18.00 W/m2
07:19 19.6 °F 12.1 °F 30.16 in NW 2.3 mph 3.4 mph 72% 0.00 in 21.00 W/m2
07:20 19.6 °F 12.1 °F 30.16 in NW 3.5 mph 4.6 mph 72% 0.00 in 23.00 W/m2
07:24 19.7 °F 12.2 °F 30.16 in NW 1.1 mph 4.6 mph 72% 0.00 in 25.00 W/m2
07:25 19.7 °F 12.2 °F 30.16 in Calm   4.6 mph 72% 0.00 in 26.00 W/m2
07:28 19.7 °F 12.2 °F 30.16 in NW 2.3 mph 5.8 mph 72% 0.00 in 33.00 W/m2
07:30 19.7 °F 12.2 °F 30.16 in NW 3.5 mph 5.8 mph 72% 0.00 in 39.00 W/m2
07:34 19.8 °F 12.2 °F 30.16 in NW 1.1 mph 5.8 mph 72% 0.00 in 44.00 W/m2
07:35 19.8 °F 12.2 °F 30.16 in NW 3.5 mph 5.8 mph 72% 0.00 in 46.00 W/m2
07:39 19.9 °F 12.3 °F 30.16 in NW 3.4 mph 6.9 mph 72% 0.00 in 53.00 W/m2
07:40 20.0 °F 12.4 °F 30.16 in NW 4.6 mph 6.9 mph 72% 0.00 in 54.00 W/m2
07:44 20.1 °F 12.5 °F 30.16 in NW 4.6 mph 5.8 mph 72% 0.00 in 56.00 W/m2
07:45 20.1 °F 12.5 °F 30.17 in NW 1.1 mph 5.8 mph 72% 0.00 in 56.00 W/m2
07:49 20.3 °F 12.7 °F 30.17 in NW 3.4 mph 5.8 mph 72% 0.00 in 58.00 W/m2
07:50 20.3 °F 12.7 °F 30.17 in NW 2.3 mph 5.8 mph 72% 0.00 in 56.00 W/m2
07:54 20.4 °F 12.5 °F 30.17 in NW 2.3 mph 5.8 mph 71% 0.00 in 56.00 W/m2
07:55 20.5 °F 12.9 °F 30.17 in NW 3.5 mph 5.8 mph 72% 0.00 in 56.00 W/m2
07:59 20.7 °F 13.1 °F 30.17 in NNW 4.6 mph 4.6 mph 72% 0.00 in 54.00 W/m2
08:00 20.7 °F 13.1 °F 30.17 in NNW 2.3 mph 4.6 mph 72% 0.00 in 53.00 W/m2
08:04 20.8 °F 12.9 °F 30.17 in NNW 3.4 mph 4.6 mph 71% 0.00 in 62.00 W/m2
08:05 20.8 °F 12.9 °F 30.17 in NNW 3.5 mph 4.6 mph 71% 0.00 in 60.00 W/m2
08:09 20.8 °F 12.9 °F 30.17 in NNW 1.1 mph 4.6 mph 71% 0.00 in 63.00 W/m2
08:10 20.8 °F 12.9 °F 30.17 in Calm   4.6 mph 71% 0.00 in 49.00 W/m2
08:14 21.0 °F 13.1 °F 30.17 in Calm   3.4 mph 71% 0.00 in 62.00 W/m2
08:15 21.0 °F 13.1 °F 30.17 in NNW 2.3 mph 3.5 mph 71% 0.00 in 69.00 W/m2
08:19 21.2 °F 13.3 °F 30.17 in NNW 4.6 mph 5.8 mph 71% 0.00 in 81.00 W/m2
08:20 21.2 °F 13.3 °F 30.17 in NNW 3.5 mph 5.8 mph 71% 0.00 in 81.00 W/m2
08:24 21.3 °F 13.4 °F 30.17 in NNW 1.1 mph 4.6 mph 71% 0.00 in 76.00 W/m2
08:25 21.4 °F 13.5 °F 30.17 in NNW 2.3 mph 4.6 mph 71% 0.00 in 81.00 W/m2
08:29 21.6 °F 14.0 °F 30.16 in NNW 2.3 mph 4.6 mph 72% 0.00 in 91.00 W/m2
08:30 21.7 °F 14.1 °F 30.16 in NNW 4.6 mph 4.6 mph 72% 0.00 in 91.00 W/m2
08:34 21.8 °F 14.2 °F 30.16 in NNW 3.4 mph 5.8 mph 72% 0.00 in 95.00 W/m2
08:35 21.9 °F 14.3 °F 30.16 in NNW 2.3 mph 5.8 mph 72% 0.00 in 93.00 W/m2
08:39 22.1 °F 14.2 °F 30.16 in NNW 1.1 mph 4.6 mph 71% 0.00 in 97.00 W/m2
08:40 22.2 °F 14.6 °F 30.16 in NNW 3.5 mph 4.6 mph 72% 0.00 in 97.00 W/m2
08:44 22.3 °F 14.7 °F 30.16 in NNW 1.1 mph 5.8 mph 72% 0.00 in 95.00 W/m2
08:45 22.4 °F 14.4 °F 30.16 in Calm   5.8 mph 71% 0.00 in 95.00 W/m2
08:49 22.5 °F 14.5 °F 30.16 in Calm   4.6 mph 71% 0.00 in 91.00 W/m2
08:50 22.6 °F 14.6 °F 30.16 in NNW 3.5 mph 4.6 mph 71% 0.00 in 93.00 W/m2
08:54 22.8 °F 14.8 °F 30.16 in NNW 3.4 mph 5.8 mph 71% 0.00 in 91.00 W/m2
08:55 22.9 °F 14.9 °F 30.17 in NNW 3.5 mph 5.8 mph 71% 0.00 in 93.00 W/m2
08:59 23.0 °F 14.7 °F 30.17 in NNW 1.1 mph 3.4 mph 70% 0.00 in 107.00 W/m2
09:00 23.0 °F 14.7 °F 30.17 in NNW 1.1 mph 3.5 mph 70% 0.00 in 113.00 W/m2
09:04 23.1 °F 14.8 °F 30.17 in NNW 2.3 mph 3.4 mph 70% 0.00 in 111.00 W/m2
09:05 23.2 °F 14.9 °F 30.17 in NNW 2.3 mph 3.5 mph 70% 0.00 in 109.00 W/m2
09:09 23.2 °F 14.9 °F 30.17 in NNW 1.1 mph 3.4 mph 70% 0.00 in 105.00 W/m2
09:10 23.3 °F 15.0 °F 30.17 in NW 3.5 mph 4.6 mph 70% 0.00 in 104.00 W/m2
09:14 23.3 °F 15.0 °F 30.17 in Calm   4.6 mph 70% 0.00 in 107.00 W/m2
09:15 23.4 °F 15.1 °F 30.17 in NW 1.1 mph 4.6 mph 70% 0.00 in 105.00 W/m2
09:19 23.5 °F 15.2 °F 30.17 in Calm   1.1 mph 70% 0.00 in 105.00 W/m2
09:20 23.5 °F 15.2 °F 30.17 in NW 1.1 mph 1.1 mph 70% 0.00 in 104.00 W/m2
09:24 23.5 °F 14.8 °F 30.18 in NW 3.4 mph 4.6 mph 69% 0.00 in 100.00 W/m2
09:25 23.6 °F 14.9 °F 30.18 in NW 3.5 mph 4.6 mph 69% 0.00 in 100.00 W/m2
09:29 23.7 °F 15.0 °F 30.17 in NW 2.3 mph 4.6 mph 69% 0.00 in 104.00 W/m2
09:30 23.7 °F 15.4 °F 30.17 in NW 1.1 mph 4.6 mph 70% 0.00 in 104.00 W/m2
09:34 23.9 °F 15.2 °F 30.17 in NNW 4.6 mph 4.6 mph 69% 0.00 in 105.00 W/m2
09:35 23.9 °F 15.2 °F 30.17 in NNW 2.3 mph 4.6 mph 69% 0.00 in 104.00 W/m2
09:39 24.1 °F 15.4 °F 30.18 in NNW 1.1 mph 2.3 mph 69% 0.00 in 105.00 W/m2
09:40 24.1 °F 15.4 °F 30.18 in NNW 3.5 mph 4.6 mph 69% 0.00 in 105.00 W/m2
09:44 24.2 °F 15.5 °F 30.18 in NNW 1.1 mph 3.4 mph 69% 0.00 in 123.00 W/m2
09:45 24.2 °F 15.5 °F 30.18 in Calm   3.5 mph 69% 0.00 in 123.00 W/m2
09:49 24.2 °F 15.5 °F 30.18 in NW 2.3 mph 4.6 mph 69% 0.00 in 127.00 W/m2
09:50 24.3 °F 15.6 °F 30.18 in NW 4.6 mph 5.8 mph 69% 0.00 in 128.00 W/m2
09:54 24.4 °F 15.7 °F 30.18 in NW 1.1 mph 4.6 mph 69% 0.00 in 134.00 W/m2
09:55 24.4 °F 15.7 °F 30.18 in NW 1.1 mph 4.6 mph 69% 0.00 in 135.00 W/m2
09:59 24.5 °F 15.8 °F 30.18 in West 2.3 mph 4.6 mph 69% 0.00 in 156.00 W/m2
10:00 24.6 °F 15.9 °F 30.18 in West 1.1 mph 4.6 mph 69% 0.00 in 160.00 W/m2
10:04 24.8 °F 16.1 °F 30.18 in West 4.6 mph 4.6 mph 69% 0.00 in 162.00 W/m2
10:05 24.8 °F 16.1 °F 30.18 in West 3.5 mph 4.6 mph 69% 0.00 in 162.00 W/m2
10:09 25.0 °F 16.3 °F 30.18 in West 2.3 mph 4.6 mph 69% 0.00 in 183.00 W/m2
10:10 25.1 °F 16.4 °F 30.18 in WNW 3.5 mph 4.6 mph 69% 0.00 in 185.00 W/m2
10:14 25.2 °F 16.1 °F 30.18 in WNW 5.8 mph 5.8 mph 68% 0.00 in 171.00 W/m2
10:15 25.2 °F 16.1 °F 30.18 in WNW 5.8 mph 5.8 mph 68% 0.00 in 165.00 W/m2
10:19 25.4 °F 16.3 °F 30.18 in WNW 3.4 mph 5.8 mph 68% 0.00 in 155.00 W/m2
10:20 25.4 °F 16.3 °F 30.18 in NW 2.3 mph 6.9 mph 68% 0.00 in 149.00 W/m2
10:24 25.5 °F 16.4 °F 30.18 in NW 1.1 mph 3.4 mph 68% 0.00 in 141.00 W/m2
10:25 25.5 °F 16.4 °F 30.18 in NW 4.6 mph 5.8 mph 68% 0.00 in 141.00 W/m2
10:29 25.7 °F 16.6 °F 30.18 in NW 1.1 mph 5.8 mph 68% 0.00 in 156.00 W/m2
10:30 25.7 °F 16.6 °F 30.18 in NW 2.3 mph 5.8 mph 68% 0.00 in 151.00 W/m2
10:34 25.9 °F 17.1 °F 30.18 in NW 2.3 mph 5.8 mph 69% 0.00 in 162.00 W/m2
10:35 25.9 °F 17.1 °F 30.18 in NW 2.3 mph 5.8 mph 69% 0.00 in 163.00 W/m2
10:39 26.0 °F 16.9 °F 30.18 in NW 3.4 mph 5.8 mph 68% 0.00 in 163.00 W/m2
10:40 26.0 °F 17.2 °F 30.18 in NW 3.5 mph 5.8 mph 69% 0.00 in 158.00 W/m2
10:44 26.2 °F 17.4 °F 30.18 in NW 2.3 mph 4.6 mph 69% 0.00 in 162.00 W/m2
10:45 26.2 °F 17.1 °F 30.19 in NW 1.1 mph 4.6 mph 68% 0.00 in 163.00 W/m2
10:49 26.4 °F 17.6 °F 30.18 in NW 3.4 mph 5.8 mph 69% 0.00 in 172.00 W/m2
10:50 26.4 °F 17.3 °F 30.18 in NW 3.5 mph 5.8 mph 68% 0.00 in 172.00 W/m2
10:54 26.6 °F 17.5 °F 30.18 in NW 1.1 mph 4.6 mph 68% 0.00 in 174.00 W/m2
10:55 26.6 °F 17.5 °F 30.18 in NW 3.5 mph 5.8 mph 68% 0.00 in 176.00 W/m2
10:59 26.8 °F 18.0 °F 30.18 in NW 5.8 mph 5.8 mph 69% 0.00 in 199.00 W/m2
11:00 26.9 °F 17.8 °F 30.18 in NW 2.3 mph 5.8 mph 68% 0.00 in 216.00 W/m2
11:04 27.0 °F 17.9 °F 30.19 in NW 5.8 mph 5.8 mph 68% 0.00 in 230.00 W/m2
11:05 27.1 °F 18.0 °F 30.19 in NW 5.8 mph 5.8 mph 68% 0.00 in 234.00 W/m2
11:09 27.3 °F 18.1 °F 30.19 in NNW 3.4 mph 8.1 mph 68% 0.00 in 246.00 W/m2
11:13 27.5 °F 18.3 °F 30.19 in NNW 2.3 mph 5.8 mph 68% 0.00 in 262.00 W/m2
11:19 27.7 °F 18.9 °F 30.19 in NNW 3.4 mph 5.8 mph 69% 0.00 in 318.00 W/m2
11:24 27.8 °F 19.3 °F 30.18 in North 3.4 mph 6.9 mph 70% 0.00 in 302.00 W/m2
11:28 27.6 °F 18.1 °F 30.18 in North 4.6 mph 6.9 mph 67% 0.00 in 309.00 W/m2
11:34 28.0 °F 19.2 °F 30.18 in NW 3.4 mph 6.9 mph 69% 0.00 in 308.00 W/m2
11:39 28.0 °F 18.5 °F 30.17 in NW 3.4 mph 5.8 mph 67% 0.00 in 306.00 W/m2
11:44 28.4 °F 18.9 °F 30.17 in NNW 3.4 mph 5.8 mph 67% 0.00 in 362.00 W/m2
11:49 29.4 °F 20.5 °F 30.17 in NNW 2.3 mph 5.8 mph 69% 0.00 in 306.00 W/m2
11:54 29.3 °F 20.4 °F 30.16 in NNE 3.4 mph 8.1 mph 69% 0.00 in 311.00 W/m2
11:59 29.6 °F 20.7 °F 30.16 in NNE 4.6 mph 8.1 mph 69% 0.00 in 309.00 W/m2
12:04 29.0 °F 20.1 °F 30.15 in NNE 2.3 mph 5.8 mph 69% 0.00 in 281.00 W/m2
12:09 29.2 °F 20.3 °F 30.15 in North 3.4 mph 6.9 mph 69% 0.00 in 341.00 W/m2
12:14 29.8 °F 21.2 °F 30.15 in North 4.6 mph 6.9 mph 70% 0.00 in 348.00 W/m2
12:19 29.1 °F 19.9 °F 30.15 in NE 1.1 mph 4.6 mph 68% 0.00 in 244.00 W/m2
12:24 29.0 °F 19.8 °F 30.15 in NE 1.1 mph 8.1 mph 68% 0.00 in 229.00 W/m2
12:29 29.5 °F 20.6 °F 30.15 in NE 4.6 mph 6.9 mph 69% 0.00 in 225.00 W/m2
12:34 29.6 °F 21.0 °F 30.15 in NNE 3.4 mph 8.1 mph 70% 0.00 in 292.00 W/m2
12:39 30.2 °F 20.9 °F 30.15 in ENE 3.4 mph 5.8 mph 68% 0.00 in 338.00 W/m2
12:43 29.8 °F 20.9 °F 30.14 in NE 1.1 mph 5.8 mph 69% 0.00 in 341.00 W/m2
12:49 30.3 °F 21.0 °F 30.14 in ENE 2.3 mph 4.6 mph 68% 0.00 in 316.00 W/m2
12:54 30.1 °F 20.8 °F 30.13 in NE 4.6 mph 10.3 mph 68% 0.00 in 290.00 W/m2
12:59 30.6 °F 21.0 °F 30.13 in NE 10.3 mph 10.3 mph 67% 0.00 in 255.00 W/m2
13:04 29.6 °F 20.4 °F 30.13 in NNE 6.9 mph 12.6 mph 68% 0.00 in 128.00 W/m2
13:09 29.1 °F 20.2 °F 30.12 in NE 2.3 mph 9.2 mph 69% 0.00 in 141.00 W/m2
13:14 29.2 °F 21.0 °F 30.12 in NNE 3.4 mph 9.2 mph 71% 0.00 in 181.00 W/m2
13:19 29.1 °F 20.9 °F 30.11 in NE 3.4 mph 10.3 mph 71% 0.00 in 206.00 W/m2
13:24 29.5 °F 21.3 °F 30.11 in NNE 5.8 mph 9.2 mph 71% 0.00 in 264.00 W/m2
13:29 30.0 °F 21.8 °F 30.11 in NE 5.8 mph 8.1 mph 71% 0.00 in 229.00 W/m2
13:34 29.6 °F 20.4 °F 30.11 in NE 3.4 mph 10.3 mph 68% 0.00 in 139.00 W/m2
13:39 29.5 °F 20.9 °F 30.11 in ENE 1.1 mph 8.1 mph 70% 0.00 in 158.00 W/m2
13:44 29.5 °F 20.3 °F 30.11 in ENE 3.4 mph 8.1 mph 68% 0.00 in 134.00 W/m2
13:49 29.4 °F 20.5 °F 30.11 in ENE 5.8 mph 10.3 mph 69% 0.00 in 132.00 W/m2
13:54 29.4 °F 20.8 °F 30.11 in ENE 9.2 mph 10.3 mph 70% 0.00 in 97.00 W/m2
13:59 29.1 °F 19.9 °F 30.11 in ENE 3.4 mph 11.5 mph 68% 0.00 in 91.00 W/m2
14:04 29.0 °F 19.8 °F 30.10 in NE 4.6 mph 9.2 mph 68% 0.00 in 111.00 W/m2
14:09 29.2 °F 19.6 °F 30.10 in NE 2.3 mph 10.3 mph 67% 0.00 in 137.00 W/m2
14:14 29.3 °F 19.7 °F 30.10 in ENE 2.3 mph 9.2 mph 67% 0.00 in 123.00 W/m2
14:19 29.5 °F 19.9 °F 30.10 in ENE 5.8 mph 10.3 mph 67% 0.00 in 123.00 W/m2
14:24 29.3 °F 19.7 °F 30.10 in ENE 5.8 mph 14.9 mph 67% 0.00 in 111.00 W/m2
14:29 29.2 °F 19.6 °F 30.10 in ENE 2.3 mph 10.3 mph 67% 0.00 in 128.00 W/m2
14:34 29.1 °F 19.2 °F 30.10 in NE 5.8 mph 12.6 mph 66% 0.00 in 107.00 W/m2
14:39 29.1 °F 19.5 °F 30.10 in NE 5.8 mph 11.5 mph 67% 0.00 in 123.00 W/m2
14:44 29.0 °F 19.1 °F 30.11 in ENE 5.8 mph 10.3 mph 66% 0.00 in 105.00 W/m2
14:48 28.9 °F 19.0 °F 30.11 in ENE 2.3 mph 8.1 mph 66% 0.00 in 95.00 W/m2
14:54 29.1 °F 19.5 °F 30.10 in East 5.8 mph 9.2 mph 67% 0.00 in 91.00 W/m2
14:59 29.1 °F 19.2 °F 30.10 in NE 3.4 mph 11.5 mph 66% 0.00 in 114.00 W/m2
15:04 29.1 °F 19.2 °F 30.10 in NNE 2.3 mph 6.9 mph 66% 0.00 in 107.00 W/m2
15:09 29.0 °F 19.1 °F 30.10 in NE 8.1 mph 10.3 mph 66% 0.00 in 102.00 W/m2
15:14 28.7 °F 18.4 °F 30.10 in ENE 4.6 mph 13.8 mph 65% 0.00 in 81.00 W/m2
15:19 28.6 °F 19.1 °F 30.10 in ENE 4.6 mph 10.3 mph 67% 0.00 in 84.00 W/m2
15:24 28.6 °F 19.1 °F 30.11 in NE 4.6 mph 10.3 mph 67% 0.00 in 88.00 W/m2
15:29 28.4 °F 18.9 °F 30.11 in ENE 3.4 mph 9.2 mph 67% 0.00 in 84.00 W/m2
15:34 28.3 °F 19.1 °F 30.10 in NE 5.8 mph 11.5 mph 68% 0.00 in 72.00 W/m2
15:39 28.2 °F 18.7 °F 30.10 in NNE 2.3 mph 11.5 mph 67% 0.00 in 72.00 W/m2
15:44 28.2 °F 18.7 °F 30.10 in ENE 4.6 mph 9.2 mph 67% 0.00 in 63.00 W/m2
15:49 28.1 °F 18.6 °F 30.11 in NE 4.6 mph 8.1 mph 67% 0.00 in 56.00 W/m2
15:54 27.9 °F 18.4 °F 30.10 in NE 6.9 mph 11.5 mph 67% 0.00 in 46.00 W/m2
15:59 27.8 °F 18.3 °F 30.10 in ENE 13.8 mph 17.2 mph 67% 0.00 in 53.00 W/m2
16:04 27.7 °F 18.5 °F 30.10 in NE 10.3 mph 12.6 mph 68% 0.00 in 51.00 W/m2
16:09 27.7 °F 18.5 °F 30.10 in NE 3.4 mph 11.5 mph 68% 0.00 in 40.00 W/m2
16:14 27.6 °F 18.4 °F 30.10 in NE 4.6 mph 9.2 mph 68% 0.00 in 39.00 W/m2
16:19 27.3 °F 18.1 °F 30.10 in NE 1.1 mph 12.6 mph 68% 0.00 in 39.00 W/m2
16:24 27.2 °F 18.1 °F 30.10 in NE 3.4 mph 8.1 mph 68% 0.00 in 32.00 W/m2
16:29 27.2 °F 18.4 °F 30.10 in NNE 8.1 mph 10.3 mph 69% 0.00 in 28.00 W/m2
16:34 27.0 °F 18.2 °F 30.10 in NNE 1.1 mph 12.6 mph 69% 0.00 in 25.00 W/m2
16:39 26.9 °F 18.1 °F 30.10 in NNE 6.9 mph 12.6 mph 69% 0.00 in 23.00 W/m2
16:44 26.7 °F 17.6 °F 30.10 in NNE 5.8 mph 12.6 mph 68% 0.00 in 21.00 W/m2
16:49 26.6 °F 17.5 °F 30.10 in East 1.1 mph 10.3 mph 68% 0.00 in 21.00 W/m2
16:54 26.5 °F 17.4 °F 30.10 in ENE 3.4 mph 5.8 mph 68% 0.00 in 19.00 W/m2
16:59 26.4 °F 17.3 °F 30.10 in NE 5.8 mph 9.2 mph 68% 0.00 in 14.00 W/m2
17:04 26.4 °F 17.6 °F 30.10 in NE 2.3 mph 8.1 mph 69% 0.00 in 12.00 W/m2
17:09 26.5 °F 17.7 °F 30.10 in NE 3.4 mph 4.6 mph 69% 0.00 in 7.00 W/m2
Juneau County Weather
Compliments of Weather Underground - 4 mb